AFL176 UUEE-URRP
Flight info
| Callsign | AFL176 |
|---|---|
| Flight time | 1h 34m |
| Altitude | 35000 |
| Route | EMGAS3J EMGAS T828 EKTUT N72 UMSIS N166 ABLOG ABLOG2A |
| Aircraft | A321/M-SDE3FGHIRWY/LB1 |
Departure
| Time | 2026-05-04 07:55 |
|---|---|
| Airport | Sheremetyevo International Airport (UUEE) |
Arrival
| Time | 2026-05-04 09:30 |
|---|---|
| Airport | Platov International Airport (URRP) |
| Time | Latitude | Longitude | Altitude | Speed | Heading |
|---|---|---|---|---|---|
| 2026-05-04 07:30 | 55.97702 | 37.41040 | 636 ft | 0 kts | 58° |
| 2026-05-04 07:42 | 55.97699 | 37.41031 | 636 ft | 2 kts | 53° |
| 2026-05-04 07:42 | 55.97690 | 37.41009 | 636 ft | 2 kts | 60° |
| 2026-05-04 07:43 | 55.97682 | 37.40986 | 636 ft | 2 kts | 58° |
| 2026-05-04 07:43 | 55.97674 | 37.40963 | 636 ft | 2 kts | 39° |
| 2026-05-04 07:43 | 55.97661 | 37.40950 | 636 ft | 2 kts | 19° |
| 2026-05-04 07:43 | 55.97646 | 37.40945 | 636 ft | 2 kts | 5° |
| 2026-05-04 07:44 | 55.97631 | 37.40939 | 636 ft | 2 kts | 31° |
| 2026-05-04 07:44 | 55.97620 | 37.40922 | 636 ft | 2 kts | 53° |
| 2026-05-04 07:44 | 55.97615 | 37.40904 | 636 ft | 0 kts | 72° |
| 2026-05-04 07:44 | 55.97613 | 37.40892 | 636 ft | 1 kts | 75° |
| 2026-05-04 07:45 | 55.97613 | 37.40891 | 636 ft | 0 kts | 75° |
| 2026-05-04 07:49 | 55.97580 | 37.41507 | 636 ft | 13 kts | 75° |
| 2026-05-04 07:49 | 55.97604 | 37.41670 | 636 ft | 13 kts | 75° |
| 2026-05-04 07:49 | 55.97627 | 37.41835 | 636 ft | 14 kts | 75° |
| 2026-05-04 07:50 | 55.97653 | 37.42006 | 636 ft | 14 kts | 72° |
| 2026-05-04 07:50 | 55.97680 | 37.42173 | 636 ft | 14 kts | 75° |
| 2026-05-04 07:50 | 55.97705 | 37.42347 | 636 ft | 14 kts | 75° |
| 2026-05-04 07:50 | 55.97730 | 37.42520 | 636 ft | 14 kts | 74° |
| 2026-05-04 07:51 | 55.97757 | 37.42696 | 636 ft | 14 kts | 75° |
| 2026-05-04 07:51 | 55.97784 | 37.42873 | 636 ft | 14 kts | 74° |
| 2026-05-04 07:51 | 55.97811 | 37.43052 | 636 ft | 15 kts | 75° |
| 2026-05-04 07:51 | 55.97838 | 37.43233 | 636 ft | 15 kts | 74° |
| 2026-05-04 07:52 | 55.97866 | 37.43415 | 636 ft | 15 kts | 75° |
| 2026-05-04 07:52 | 55.97893 | 37.43597 | 636 ft | 15 kts | 75° |
| 2026-05-04 07:52 | 55.97920 | 37.43784 | 636 ft | 15 kts | 75° |
| 2026-05-04 07:52 | 55.97944 | 37.43960 | 636 ft | 13 kts | 89° |
| 2026-05-04 07:53 | 55.97884 | 37.44046 | 636 ft | 12 kts | 163° |
| 2026-05-04 07:54 | 55.97292 | 37.42482 | 637 ft | 139 kts | 252° |
| 2026-05-04 07:55 | 55.97010 | 37.40678 | 1075 ft | 154 kts | 253° |
| 2026-05-04 07:55 | 55.96734 | 37.38899 | 1856 ft | 148 kts | 254° |
| 2026-05-04 07:55 | 55.96379 | 37.37236 | 2506 ft | 144 kts | 243° |
| 2026-05-04 07:55 | 55.95838 | 37.35680 | 2770 ft | 154 kts | 237° |
| 2026-05-04 07:56 | 55.95209 | 37.34039 | 3023 ft | 166 kts | 237° |
| 2026-05-04 07:56 | 55.94535 | 37.32291 | 3281 ft | 178 kts | 237° |
| 2026-05-04 07:56 | 55.93811 | 37.30403 | 3541 ft | 191 kts | 237° |
| 2026-05-04 07:56 | 55.93044 | 37.28393 | 3762 ft | 207 kts | 237° |
| 2026-05-04 07:57 | 55.92207 | 37.26198 | 4039 ft | 222 kts | 237° |
| 2026-05-04 07:57 | 55.91299 | 37.23813 | 4231 ft | 244 kts | 237° |
| 2026-05-04 07:57 | 55.90344 | 37.21314 | 4888 ft | 246 kts | 237° |
| 2026-05-04 07:57 | 55.89407 | 37.18799 | 5597 ft | 246 kts | 240° |
| 2026-05-04 07:58 | 55.88594 | 37.16116 | 6240 ft | 249 kts | 247° |
| 2026-05-04 07:58 | 55.87882 | 37.13253 | 6633 ft | 262 kts | 249° |
| 2026-05-04 07:58 | 55.87156 | 37.10232 | 6921 ft | 267 kts | 249° |
| 2026-05-04 07:58 | 55.86560 | 37.07149 | 6966 ft | 265 kts | 263° |
| 2026-05-04 07:59 | 55.86585 | 37.03887 | 7038 ft | 265 kts | 283° |
| 2026-05-04 07:59 | 55.87071 | 37.00735 | 7555 ft | 268 kts | 287° |
| 2026-05-04 07:59 | 55.87601 | 36.97583 | 7885 ft | 266 kts | 287° |
| 2026-05-04 07:59 | 55.88136 | 36.94397 | 7982 ft | 266 kts | 287° |
| 2026-05-04 08:00 | 55.88656 | 36.91267 | 7993 ft | 265 kts | 287° |
| 2026-05-04 08:00 | 55.89175 | 36.88114 | 7981 ft | 264 kts | 287° |
| 2026-05-04 08:00 | 55.89685 | 36.84993 | 7990 ft | 264 kts | 287° |
| 2026-05-04 08:02 | 55.89276 | 36.62174 | 10824 ft | 280 kts | 259° |
| 2026-05-04 08:02 | 55.88797 | 36.58791 | 11428 ft | 283 kts | 259° |
| 2026-05-04 08:02 | 55.88324 | 36.55442 | 12007 ft | 285 kts | 259° |
| 2026-05-04 08:03 | 55.87815 | 36.52005 | 12560 ft | 289 kts | 255° |
| 2026-05-04 08:03 | 55.86784 | 36.48941 | 12834 ft | 297 kts | 229° |
| 2026-05-04 08:03 | 55.85041 | 36.46913 | 12882 ft | 306 kts | 203° |
| 2026-05-04 08:03 | 55.82912 | 36.46430 | 12892 ft | 314 kts | 178° |
| 2026-05-04 08:04 | 55.80745 | 36.47020 | 12906 ft | 318 kts | 173° |
| 2026-05-04 08:04 | 55.78580 | 36.47689 | 12905 ft | 318 kts | 173° |
| 2026-05-04 08:04 | 55.76437 | 36.48653 | 13012 ft | 326 kts | 162° |
| 2026-05-04 08:04 | 55.74366 | 36.50399 | 13571 ft | 329 kts | 152° |
| 2026-05-04 08:05 | 55.72443 | 36.52459 | 14189 ft | 329 kts | 150° |
| 2026-05-04 08:05 | 55.70498 | 36.54615 | 14677 ft | 331 kts | 149° |
| 2026-05-04 08:05 | 55.68553 | 36.56766 | 14884 ft | 332 kts | 150° |
| 2026-05-04 08:05 | 55.66582 | 36.58921 | 14891 ft | 331 kts | 150° |
| 2026-05-04 08:06 | 55.64630 | 36.61039 | 14899 ft | 331 kts | 150° |
| 2026-05-04 08:06 | 55.62682 | 36.63176 | 14901 ft | 334 kts | 147° |
| 2026-05-04 08:06 | 55.60871 | 36.65961 | 14904 ft | 351 kts | 132° |
| 2026-05-04 08:06 | 55.59444 | 36.69453 | 14912 ft | 355 kts | 122° |
| 2026-05-04 08:08 | 55.50493 | 36.95519 | 14916 ft | 356 kts | 121° |
| 2026-05-04 08:08 | 55.49202 | 36.99209 | 14918 ft | 356 kts | 121° |
| 2026-05-04 08:10 | 55.35497 | 37.22877 | 14922 ft | 355 kts | 152° |
| 2026-05-04 08:11 | 55.33345 | 37.24973 | 14923 ft | 355 kts | 151° |
| 2026-05-04 08:11 | 55.29036 | 37.29215 | 14923 ft | 354 kts | 151° |
| 2026-05-04 08:11 | 55.26908 | 37.31319 | 14923 ft | 354 kts | 151° |
| 2026-05-04 08:12 | 55.24763 | 37.33439 | 14924 ft | 354 kts | 150° |
| 2026-05-04 08:12 | 55.22634 | 37.35542 | 14924 ft | 354 kts | 150° |
| 2026-05-04 08:12 | 55.20502 | 37.37658 | 14925 ft | 354 kts | 150° |
| 2026-05-04 08:12 | 55.18363 | 37.39815 | 14926 ft | 354 kts | 150° |
| 2026-05-04 08:13 | 55.16258 | 37.41943 | 14926 ft | 354 kts | 150° |
| 2026-05-04 08:13 | 55.14115 | 37.44105 | 14926 ft | 354 kts | 150° |
| 2026-05-04 08:13 | 55.11991 | 37.46239 | 14926 ft | 354 kts | 150° |
| 2026-05-04 08:13 | 55.09866 | 37.48371 | 14925 ft | 354 kts | 150° |
| 2026-05-04 08:14 | 55.07729 | 37.50512 | 14927 ft | 354 kts | 150° |
| 2026-05-04 08:14 | 55.05596 | 37.52624 | 14925 ft | 354 kts | 152° |
| 2026-05-04 08:14 | 55.03407 | 37.54541 | 14977 ft | 357 kts | 154° |
| 2026-05-04 08:16 | 54.87310 | 37.67179 | 18530 ft | 371 kts | 159° |
| 2026-05-04 08:16 | 54.84924 | 37.68870 | 19004 ft | 374 kts | 159° |
| 2026-05-04 08:16 | 54.82524 | 37.70571 | 19455 ft | 376 kts | 159° |
| 2026-05-04 08:17 | 54.80101 | 37.72286 | 19891 ft | 379 kts | 159° |
| 2026-05-04 08:17 | 54.77654 | 37.74015 | 20345 ft | 381 kts | 159° |
| 2026-05-04 08:17 | 54.75223 | 37.75728 | 20774 ft | 384 kts | 159° |
| 2026-05-04 08:17 | 54.72737 | 37.77481 | 20926 ft | 385 kts | 158° |
| 2026-05-04 08:19 | 54.54186 | 37.83378 | 21539 ft | 416 kts | 179° |
| 2026-05-04 08:19 | 54.51315 | 37.83542 | 21790 ft | 422 kts | 179° |
| 2026-05-04 08:20 | 54.48364 | 37.83814 | 22173 ft | 425 kts | 174° |
| 2026-05-04 08:20 | 54.45481 | 37.84816 | 22546 ft | 428 kts | 163° |
| 2026-05-04 08:20 | 54.42718 | 37.86680 | 22927 ft | 430 kts | 153° |
| 2026-05-04 08:20 | 54.40075 | 37.89087 | 23312 ft | 431 kts | 150° |
| 2026-05-04 08:21 | 54.37450 | 37.91592 | 23666 ft | 434 kts | 150° |
| 2026-05-04 08:21 | 54.34827 | 37.94099 | 24021 ft | 436 kts | 150° |
| 2026-05-04 08:21 | 54.32168 | 37.96621 | 24378 ft | 439 kts | 150° |
| 2026-05-04 08:21 | 54.29483 | 37.99150 | 24713 ft | 441 kts | 150° |
| 2026-05-04 08:22 | 54.26805 | 38.01656 | 25038 ft | 444 kts | 150° |
| 2026-05-04 08:22 | 54.24084 | 38.04193 | 25359 ft | 446 kts | 151° |
| 2026-05-04 08:24 | 54.04778 | 38.22033 | 27494 ft | 460 kts | 150° |
| 2026-05-04 08:24 | 54.01977 | 38.24605 | 27772 ft | 461 kts | 150° |
| 2026-05-04 08:24 | 53.99128 | 38.27218 | 28044 ft | 463 kts | 150° |
| 2026-05-04 08:24 | 53.96317 | 38.29791 | 28303 ft | 465 kts | 150° |
| 2026-05-04 08:25 | 53.93464 | 38.32397 | 28540 ft | 468 kts | 150° |
| 2026-05-04 08:25 | 53.90580 | 38.35027 | 28808 ft | 469 kts | 150° |
| 2026-05-04 08:25 | 53.87735 | 38.37610 | 29137 ft | 469 kts | 150° |
| 2026-05-04 08:25 | 53.84870 | 38.40201 | 29509 ft | 467 kts | 150° |
| 2026-05-04 08:26 | 53.81999 | 38.42798 | 29848 ft | 467 kts | 150° |
| 2026-05-04 08:27 | 53.60569 | 38.54228 | 31908 ft | 465 kts | 168° |
| 2026-05-04 08:28 | 53.57393 | 38.55262 | 32194 ft | 464 kts | 168° |
| 2026-05-04 08:28 | 53.54224 | 38.56295 | 32464 ft | 463 kts | 168° |
| 2026-05-04 08:28 | 53.51093 | 38.57318 | 32723 ft | 463 kts | 168° |
| 2026-05-04 08:28 | 53.47937 | 38.58350 | 32982 ft | 462 kts | 168° |
| 2026-05-04 08:29 | 53.44877 | 38.59350 | 33233 ft | 462 kts | 168° |
| 2026-05-04 08:29 | 53.41705 | 38.60386 | 33451 ft | 462 kts | 168° |
| 2026-05-04 08:29 | 53.38570 | 38.61407 | 33636 ft | 463 kts | 168° |
| 2026-05-04 08:31 | 53.16417 | 38.68631 | 34877 ft | 466 kts | 169° |
| 2026-05-04 08:33 | 52.94128 | 38.75788 | 34987 ft | 468 kts | 169° |
| 2026-05-04 08:33 | 52.90939 | 38.76803 | 34992 ft | 468 kts | 169° |
| 2026-05-04 08:35 | 52.65511 | 38.84832 | 35002 ft | 466 kts | 169° |
| 2026-05-04 08:35 | 52.59192 | 38.86814 | 34999 ft | 466 kts | 169° |
| 2026-05-04 08:37 | 52.37363 | 38.95924 | 35003 ft | 463 kts | 154° |
| 2026-05-04 08:38 | 52.31699 | 39.00877 | 35008 ft | 463 kts | 147° |
| 2026-05-04 08:38 | 52.26349 | 39.06622 | 35007 ft | 463 kts | 145° |
| 2026-05-04 08:40 | 52.04911 | 39.29474 | 35030 ft | 462 kts | 146° |
| 2026-05-04 08:41 | 51.99546 | 39.35142 | 35020 ft | 462 kts | 146° |
| 2026-05-04 08:41 | 51.94163 | 39.40812 | 35034 ft | 462 kts | 146° |
| 2026-05-04 08:42 | 51.88803 | 39.46436 | 35035 ft | 461 kts | 146° |
| 2026-05-04 08:42 | 51.83400 | 39.52060 | 35036 ft | 461 kts | 146° |
| 2026-05-04 08:43 | 51.78057 | 39.57603 | 35036 ft | 461 kts | 147° |
| 2026-05-04 08:43 | 51.73378 | 39.61790 | 35037 ft | 462 kts | 153° |
| 2026-05-04 08:44 | 51.66480 | 39.66371 | 35039 ft | 461 kts | 161° |
| 2026-05-04 08:46 | 51.42205 | 39.79508 | 35044 ft | 460 kts | 161° |
| 2026-05-04 08:46 | 51.36146 | 39.82762 | 35040 ft | 461 kts | 161° |
| 2026-05-04 08:47 | 51.30104 | 39.85997 | 35040 ft | 460 kts | 161° |
| 2026-05-04 08:47 | 51.24079 | 39.89213 | 35044 ft | 460 kts | 162° |
| 2026-05-04 08:48 | 51.18004 | 39.92444 | 35044 ft | 459 kts | 161° |
| 2026-05-04 08:48 | 51.11993 | 39.95635 | 35044 ft | 459 kts | 162° |
| 2026-05-04 08:49 | 51.05948 | 39.98841 | 35046 ft | 459 kts | 162° |
| 2026-05-04 08:50 | 50.84735 | 40.09981 | 35040 ft | 459 kts | 162° |
| 2026-05-04 08:51 | 50.78713 | 40.13131 | 35038 ft | 458 kts | 162° |
| 2026-05-04 08:51 | 50.72677 | 40.16280 | 35043 ft | 458 kts | 162° |
| 2026-05-04 08:52 | 50.66628 | 40.19426 | 35033 ft | 459 kts | 162° |
| 2026-05-04 08:52 | 50.60603 | 40.22548 | 35040 ft | 459 kts | 162° |
| 2026-05-04 08:54 | 50.36460 | 40.34980 | 35041 ft | 457 kts | 162° |
| 2026-05-04 08:55 | 50.30400 | 40.38079 | 35037 ft | 457 kts | 162° |
| 2026-05-04 08:55 | 50.24378 | 40.41152 | 35037 ft | 457 kts | 162° |
| 2026-05-04 09:01 | 49.60710 | 40.70810 | 35053 ft | 453 kts | 177° |
| 2026-05-04 09:01 | 49.54462 | 40.71091 | 35054 ft | 451 kts | 183° |
| 2026-05-04 09:02 | 49.48174 | 40.70870 | 35054 ft | 451 kts | 183° |
| 2026-05-04 09:02 | 49.41946 | 40.70680 | 35054 ft | 451 kts | 183° |
| 2026-05-04 09:03 | 49.35678 | 40.70508 | 35061 ft | 450 kts | 183° |
| 2026-05-04 09:03 | 49.29431 | 40.70355 | 35065 ft | 450 kts | 183° |
| 2026-05-04 09:04 | 49.23194 | 40.70195 | 35062 ft | 449 kts | 183° |
| 2026-05-04 09:04 | 49.16987 | 40.70032 | 34841 ft | 449 kts | 183° |
| 2026-05-04 09:04 | 49.13869 | 40.69951 | 34618 ft | 447 kts | 183° |
| 2026-05-04 09:05 | 49.10792 | 40.69868 | 34292 ft | 445 kts | 183° |
| 2026-05-04 09:05 | 49.07690 | 40.69785 | 33770 ft | 443 kts | 183° |
| 2026-05-04 09:05 | 49.04628 | 40.69702 | 33165 ft | 442 kts | 184° |
| 2026-05-04 09:05 | 49.01566 | 40.69619 | 32528 ft | 442 kts | 184° |
| 2026-05-04 09:06 | 48.98484 | 40.69537 | 31868 ft | 442 kts | 184° |
| 2026-05-04 09:07 | 48.77655 | 40.65264 | 27554 ft | 427 kts | 193° |
| 2026-05-04 09:08 | 48.74765 | 40.64420 | 27100 ft | 422 kts | 193° |
| 2026-05-04 09:08 | 48.71892 | 40.63583 | 26645 ft | 417 kts | 193° |
| 2026-05-04 09:08 | 48.69072 | 40.62763 | 26198 ft | 412 kts | 193° |
| 2026-05-04 09:08 | 48.66251 | 40.61943 | 25742 ft | 408 kts | 193° |
| 2026-05-04 09:09 | 48.63510 | 40.61147 | 25304 ft | 404 kts | 193° |
| 2026-05-04 09:09 | 48.60770 | 40.60352 | 24868 ft | 400 kts | 193° |
| 2026-05-04 09:09 | 48.58057 | 40.59563 | 24423 ft | 396 kts | 193° |
| 2026-05-04 09:09 | 48.55344 | 40.58775 | 23987 ft | 393 kts | 193° |
| 2026-05-04 09:10 | 48.52668 | 40.57999 | 23546 ft | 390 kts | 193° |
| 2026-05-04 09:10 | 48.50057 | 40.57243 | 23116 ft | 388 kts | 193° |
| 2026-05-04 09:10 | 48.47410 | 40.56478 | 22668 ft | 386 kts | 193° |
| 2026-05-04 09:10 | 48.44764 | 40.55717 | 22213 ft | 384 kts | 193° |
| 2026-05-04 09:11 | 48.42175 | 40.54983 | 21753 ft | 383 kts | 193° |
| 2026-05-04 09:11 | 48.39564 | 40.54246 | 21303 ft | 382 kts | 193° |
| 2026-05-04 09:11 | 48.36946 | 40.53507 | 20851 ft | 380 kts | 193° |
| 2026-05-04 09:11 | 48.34350 | 40.52774 | 20407 ft | 379 kts | 193° |
| 2026-05-04 09:12 | 48.31786 | 40.52046 | 19970 ft | 377 kts | 193° |
| 2026-05-04 09:12 | 48.29235 | 40.51323 | 19525 ft | 376 kts | 193° |
| 2026-05-04 09:14 | 48.11488 | 40.46298 | 16451 ft | 368 kts | 191° |
| 2026-05-04 09:14 | 48.08994 | 40.45594 | 16011 ft | 367 kts | 191° |
| 2026-05-04 09:14 | 48.06488 | 40.44888 | 15573 ft | 366 kts | 191° |
| 2026-05-04 09:14 | 48.03985 | 40.44185 | 15130 ft | 365 kts | 190° |
| 2026-05-04 09:15 | 48.01505 | 40.43489 | 14692 ft | 365 kts | 189° |
| 2026-05-04 09:15 | 47.99008 | 40.42788 | 14246 ft | 364 kts | 189° |
| 2026-05-04 09:15 | 47.96521 | 40.42092 | 13801 ft | 363 kts | 188° |
| 2026-05-04 09:15 | 47.94065 | 40.41405 | 13364 ft | 362 kts | 188° |
| 2026-05-04 09:17 | 47.77111 | 40.29829 | 10247 ft | 338 kts | 238° |
| 2026-05-04 09:18 | 47.75927 | 40.26888 | 10153 ft | 324 kts | 238° |
| 2026-05-04 09:18 | 47.74786 | 40.24115 | 10071 ft | 310 kts | 237° |
| 2026-05-04 09:18 | 47.73663 | 40.21436 | 9940 ft | 301 kts | 237° |
| 2026-05-04 09:18 | 47.72559 | 40.18835 | 9590 ft | 299 kts | 236° |
| 2026-05-04 09:19 | 47.71443 | 40.16212 | 9256 ft | 298 kts | 237° |
| 2026-05-04 09:19 | 47.70377 | 40.13616 | 8924 ft | 296 kts | 238° |
| 2026-05-04 09:19 | 47.69321 | 40.11002 | 8602 ft | 294 kts | 238° |
| 2026-05-04 09:19 | 47.68272 | 40.08400 | 8281 ft | 292 kts | 238° |
| 2026-05-04 09:20 | 47.67244 | 40.05856 | 7968 ft | 290 kts | 238° |
| 2026-05-04 09:20 | 47.66208 | 40.03303 | 7659 ft | 288 kts | 238° |
| 2026-05-04 09:20 | 47.65167 | 40.00743 | 7347 ft | 287 kts | 238° |
| 2026-05-04 09:20 | 47.64149 | 39.98244 | 7040 ft | 285 kts | 238° |
| 2026-05-04 09:21 | 47.63128 | 39.95736 | 6730 ft | 283 kts | 238° |
| 2026-05-04 09:21 | 47.62090 | 39.93281 | 6424 ft | 281 kts | 234° |
| 2026-05-04 09:21 | 47.60965 | 39.90926 | 6123 ft | 279 kts | 232° |
| 2026-05-04 09:21 | 47.59837 | 39.88616 | 5825 ft | 277 kts | 232° |
| 2026-05-04 09:22 | 47.58710 | 39.86316 | 5625 ft | 270 kts | 232° |
| 2026-05-04 09:22 | 47.57623 | 39.84088 | 5596 ft | 269 kts | 232° |
| 2026-05-04 09:22 | 47.56532 | 39.81853 | 5344 ft | 269 kts | 233° |
| 2026-05-04 09:22 | 47.55430 | 39.79597 | 5062 ft | 267 kts | 233° |
| 2026-05-04 09:23 | 47.54359 | 39.77401 | 4786 ft | 266 kts | 233° |
| 2026-05-04 09:23 | 47.53276 | 39.75186 | 4507 ft | 265 kts | 233° |
| 2026-05-04 09:23 | 47.52195 | 39.72973 | 4228 ft | 264 kts | 233° |
| 2026-05-04 09:23 | 47.51133 | 39.70804 | 3957 ft | 263 kts | 233° |
| 2026-05-04 09:25 | 47.42711 | 39.71377 | 2784 ft | 172 kts | 136° |
| 2026-05-04 09:25 | 47.41795 | 39.72386 | 2464 ft | 160 kts | 136° |
| 2026-05-04 09:26 | 47.40981 | 39.73368 | 2244 ft | 143 kts | 120° |
| 2026-05-04 09:26 | 47.40839 | 39.74725 | 2269 ft | 143 kts | 71° |
| 2026-05-04 09:26 | 47.41340 | 39.76029 | 2281 ft | 148 kts | 56° |
| 2026-05-04 09:26 | 47.41972 | 39.77226 | 2260 ft | 148 kts | 54° |
| 2026-05-04 09:27 | 47.42606 | 39.78434 | 2095 ft | 148 kts | 55° |
| 2026-05-04 09:27 | 47.43218 | 39.79656 | 1903 ft | 148 kts | 57° |
| 2026-05-04 09:27 | 47.43814 | 39.80888 | 1710 ft | 148 kts | 57° |
| 2026-05-04 09:27 | 47.44410 | 39.82129 | 1516 ft | 147 kts | 57° |
| 2026-05-04 09:28 | 47.44998 | 39.83356 | 1325 ft | 147 kts | 57° |
| 2026-05-04 09:28 | 47.45583 | 39.84573 | 1133 ft | 146 kts | 57° |
| 2026-05-04 09:28 | 47.46176 | 39.85804 | 942 ft | 146 kts | 57° |
| 2026-05-04 09:28 | 47.46764 | 39.87020 | 749 ft | 145 kts | 57° |
| 2026-05-04 09:29 | 47.47340 | 39.88214 | 561 ft | 145 kts | 58° |
| 2026-05-04 09:29 | 47.47924 | 39.89420 | 370 ft | 143 kts | 58° |
| 2026-05-04 09:29 | 47.48503 | 39.90614 | 177 ft | 139 kts | 58° |
| 2026-05-04 09:29 | 47.48989 | 39.91638 | 205 ft | 99 kts | 55° |
| 2026-05-04 09:30 | 47.49293 | 39.92261 | 243 ft | 49 kts | 54° |
| 2026-05-04 09:30 | 47.49468 | 39.92618 | 242 ft | 35 kts | 54° |
| 2026-05-04 09:30 | 47.49583 | 39.92855 | 248 ft | 25 kts | 54° |
| 2026-05-04 09:30 | 47.49676 | 39.93048 | 256 ft | 20 kts | 54° |
| 2026-05-04 09:31 | 47.49752 | 39.93204 | 262 ft | 16 kts | 54° |
| 2026-05-04 09:31 | 47.49816 | 39.93335 | 266 ft | 14 kts | 54° |
| 2026-05-04 09:31 | 47.49872 | 39.93452 | 268 ft | 13 kts | 54° |
| 2026-05-04 09:31 | 47.49929 | 39.93568 | 267 ft | 14 kts | 54° |
| 2026-05-04 09:32 | 47.49978 | 39.93671 | 266 ft | 8 kts | 54° |
| 2026-05-04 09:32 | 47.50005 | 39.93726 | 265 ft | 5 kts | 54° |
| 2026-05-04 09:34 | 47.49817 | 39.94229 | 265 ft | 3 kts | 132° |
| 2026-05-04 09:34 | 47.49809 | 39.94241 | 265 ft | 0 kts | 132° |